sensor_id;sensor_type;location;lat;lon;timestamp;temperature;humidity
75357;HTU21D;63946;51.986;5.930;2023-05-07T06:38:59;15.42;75.85
75357;HTU21D;63946;51.986;5.930;2023-05-07T06:41:28;15.44;75.88
75357;HTU21D;63946;51.986;5.930;2023-05-07T06:44:04;15.52;75.86
75357;HTU21D;63946;51.986;5.930;2023-05-07T06:46:44;15.65;75.58
75357;HTU21D;63946;51.986;5.930;2023-05-07T06:49:15;15.69;75.40
75357;HTU21D;63946;51.986;5.930;2023-05-07T06:51:47;15.76;75.24
75357;HTU21D;63946;51.986;5.930;2023-05-07T06:54:16;15.76;75.07
75357;HTU21D;63946;51.986;5.930;2023-05-07T06:56:45;15.76;75.23
75357;HTU21D;63946;51.986;5.930;2023-05-07T06:59:16;15.77;75.14
75357;HTU21D;63946;51.986;5.930;2023-05-07T07:01:47;15.80;75.14
75357;HTU21D;63946;51.986;5.930;2023-05-07T07:04:15;15.81;75.12
75357;HTU21D;63946;51.986;5.930;2023-05-07T07:06:54;15.93;75.04
75357;HTU21D;63946;51.986;5.930;2023-05-07T07:09:23;16.08;74.61
75357;HTU21D;63946;51.986;5.930;2023-05-07T07:11:54;16.16;74.32
75357;HTU21D;63946;51.986;5.930;2023-05-07T07:14:23;16.20;74.22
75357;HTU21D;63946;51.986;5.930;2023-05-07T07:16:54;16.19;74.03
75357;HTU21D;63946;51.986;5.930;2023-05-07T07:19:24;16.21;73.91
75357;HTU21D;63946;51.986;5.930;2023-05-07T07:21:55;16.26;73.83
75357;HTU21D;63946;51.986;5.930;2023-05-07T07:24:23;16.29;73.83
75357;HTU21D;63946;51.986;5.930;2023-05-07T07:26:56;16.30;73.84
75357;HTU21D;63946;51.986;5.930;2023-05-07T07:29:26;16.31;73.69
75357;HTU21D;63946;51.986;5.930;2023-05-07T07:31:56;16.40;73.71
75357;HTU21D;63946;51.986;5.930;2023-05-07T07:34:25;16.52;73.45
75357;HTU21D;63946;51.986;5.930;2023-05-07T07:36:54;16.57;73.00
75357;HTU21D;63946;51.986;5.930;2023-05-07T07:39:23;16.51;72.87
75357;HTU21D;63946;51.986;5.930;2023-05-07T07:41:55;16.40;72.99
75357;HTU21D;63946;51.986;5.930;2023-05-07T07:44:25;16.28;73.14
75357;HTU21D;63946;51.986;5.930;2023-05-07T07:46:58;16.25;73.22
75357;HTU21D;63946;51.986;5.930;2023-05-07T07:49:27;16.19;73.28
75357;HTU21D;63946;51.986;5.930;2023-05-07T07:51:58;16.29;73.16
75357;HTU21D;63946;51.986;5.930;2023-05-07T07:54:29;16.41;72.74
75357;HTU21D;63946;51.986;5.930;2023-05-07T07:56:58;16.44;72.73
75357;HTU21D;63946;51.986;5.930;2023-05-07T07:59:29;16.51;72.69
75357;HTU21D;63946;51.986;5.930;2023-05-07T08:01:59;16.65;72.54
75357;HTU21D;63946;51.986;5.930;2023-05-07T08:04:35;16.81;72.25
75357;HTU21D;63946;51.986;5.930;2023-05-07T08:07:06;16.99;71.86
75357;HTU21D;63946;51.986;5.930;2023-05-07T08:09:39;16.99;71.65
75357;HTU21D;63946;51.986;5.930;2023-05-07T08:12:09;16.92;71.70
75357;HTU21D;63946;51.986;5.930;2023-05-07T08:14:39;16.85;71.90
75357;HTU21D;63946;51.986;5.930;2023-05-07T08:17:08;16.78;72.06
75357;HTU21D;63946;51.986;5.930;2023-05-07T08:19:38;16.82;72.23
75357;HTU21D;63946;51.986;5.930;2023-05-07T08:22:10;16.85;72.03
75357;HTU21D;63946;51.986;5.930;2023-05-07T08:24:40;16.87;72.06
75357;HTU21D;63946;51.986;5.930;2023-05-07T08:27:10;16.91;71.78
75357;HTU21D;63946;51.986;5.930;2023-05-07T08:29:41;16.93;71.94
75357;HTU21D;63946;51.986;5.930;2023-05-07T08:32:13;16.99;71.69
75357;HTU21D;63946;51.986;5.930;2023-05-07T08:34:42;16.91;71.89
75357;HTU21D;63946;51.986;5.930;2023-05-07T08:37:13;16.95;71.93
75357;HTU21D;63946;51.986;5.930;2023-05-07T08:39:49;17.05;71.90
75357;HTU21D;63946;51.986;5.930;2023-05-07T08:42:23;17.17;71.71
75357;HTU21D;63946;51.986;5.930;2023-05-07T08:44:55;17.24;71.49
75357;HTU21D;63946;51.986;5.930;2023-05-07T08:47:29;17.30;71.36
75357;HTU21D;63946;51.986;5.930;2023-05-07T08:50:03;17.35;71.22
75357;HTU21D;63946;51.986;5.930;2023-05-07T08:52:33;17.41;71.13
75357;HTU21D;63946;51.986;5.930;2023-05-07T08:55:02;17.44;70.84
75357;HTU21D;63946;51.986;5.930;2023-05-07T08:57:32;17.51;70.71
75357;HTU21D;63946;51.986;5.930;2023-05-07T09:00:03;17.52;70.39
75357;HTU21D;63946;51.986;5.930;2023-05-07T09:02:37;17.47;70.56
75357;HTU21D;63946;51.986;5.930;2023-05-07T09:05:07;17.52;70.74
75357;HTU21D;63946;51.986;5.930;2023-05-07T09:07:38;17.63;70.48
75357;HTU21D;63946;51.986;5.930;2023-05-07T09:10:07;17.73;69.97
75357;HTU21D;63946;51.986;5.930;2023-05-07T09:12:40;17.79;69.74
75357;HTU21D;63946;51.986;5.930;2023-05-07T09:15:10;17.76;69.71
75357;HTU21D;63946;51.986;5.930;2023-05-07T09:17:43;17.90;69.70
75357;HTU21D;63946;51.986;5.930;2023-05-07T09:20:12;18.07;69.51
75357;HTU21D;63946;51.986;5.930;2023-05-07T09:22:42;18.19;68.98
75357;HTU21D;63946;51.986;5.930;2023-05-07T09:25:14;18.26;68.87
75357;HTU21D;63946;51.986;5.930;2023-05-07T09:27:43;18.36;69.04
75357;HTU21D;63946;51.986;5.930;2023-05-07T09:30:17;18.52;68.60
75357;HTU21D;63946;51.986;5.930;2023-05-07T09:32:46;18.61;68.26
75357;HTU21D;63946;51.986;5.930;2023-05-07T09:35:19;18.69;67.91
75357;HTU21D;63946;51.986;5.930;2023-05-07T09:37:57;18.76;67.66
75357;HTU21D;63946;51.986;5.930;2023-05-07T09:40:29;18.85;67.51
75357;HTU21D;63946;51.986;5.930;2023-05-07T09:43:10;18.93;67.07
75357;HTU21D;63946;51.986;5.930;2023-05-07T09:45:46;19.01;66.88
75357;HTU21D;63946;51.986;5.930;2023-05-07T09:48:18;19.12;66.57
75357;HTU21D;63946;51.986;5.930;2023-05-07T09:50:50;19.20;66.55
75357;HTU21D;63946;51.986;5.930;2023-05-07T09:53:24;19.32;65.66
75357;HTU21D;63946;51.986;5.930;2023-05-07T09:55:56;19.30;65.54
75357;HTU21D;63946;51.986;5.930;2023-05-07T09:58:26;19.41;65.29
75357;HTU21D;63946;51.986;5.930;2023-05-07T10:00:56;19.44;65.27
75357;HTU21D;63946;51.986;5.930;2023-05-07T10:03:25;19.60;65.36
75357;HTU21D;63946;51.986;5.930;2023-05-07T10:06:01;19.72;64.63
75357;HTU21D;63946;51.986;5.930;2023-05-07T10:08:33;19.77;64.72
75357;HTU21D;63946;51.986;5.930;2023-05-07T10:11:04;19.79;64.29
75357;HTU21D;63946;51.986;5.930;2023-05-07T10:13:35;19.71;64.07
75357;HTU21D;63946;51.986;5.930;2023-05-07T10:16:12;19.72;64.37
75357;HTU21D;63946;51.986;5.930;2023-05-07T10:18:46;19.92;64.23
75357;HTU21D;63946;51.986;5.930;2023-05-07T10:21:23;20.07;63.95
75357;HTU21D;63946;51.986;5.930;2023-05-07T10:24:28;20.32;63.61
75357;HTU21D;63946;51.986;5.930;2023-05-07T10:27:09;20.48;63.31
75357;HTU21D;63946;51.986;5.930;2023-05-07T10:32:45;20.75;62.24
75357;HTU21D;63946;51.986;5.930;2023-05-07T10:35:29;20.69;61.84
75357;HTU21D;63946;51.986;5.930;2023-05-07T10:38:03;20.87;61.45
75357;HTU21D;63946;51.986;5.930;2023-05-07T10:40:37;21.17;60.67
75357;HTU21D;63946;51.986;5.930;2023-05-07T10:43:09;21.47;60.00
75357;HTU21D;63946;51.986;5.930;2023-05-07T10:46:36;21.67;59.32
75357;HTU21D;63946;51.986;5.930;2023-05-07T10:49:15;21.87;59.54
75357;HTU21D;63946;51.986;5.930;2023-05-07T10:52:17;22.01;58.90
75357;HTU21D;63946;51.986;5.930;2023-05-07T10:55:23;21.99;58.81
75357;HTU21D;63946;51.986;5.930;2023-05-07T10:58:26;21.94;58.00
75357;HTU21D;63946;51.986;5.930;2023-05-07T11:01:04;21.89;58.15
75357;HTU21D;63946;51.986;5.930;2023-05-07T11:04:14;21.81;57.83
75357;HTU21D;63946;51.986;5.930;2023-05-07T11:07:24;21.92;58.29
75357;HTU21D;63946;51.986;5.930;2023-05-07T11:10:02;21.78;58.34
75357;HTU21D;63946;51.986;5.930;2023-05-07T11:12:53;21.73;58.45
75357;HTU21D;63946;51.986;5.930;2023-05-07T11:15:37;21.73;58.40
75357;HTU21D;63946;51.986;5.930;2023-05-07T11:18:21;21.76;57.87
75357;HTU21D;63946;51.986;5.930;2023-05-07T11:20:57;21.77;57.88
75357;HTU21D;63946;51.986;5.930;2023-05-07T11:26:43;21.92;57.94
75357;HTU21D;63946;51.986;5.930;2023-05-07T11:29:17;21.88;56.88
75357;HTU21D;63946;51.986;5.930;2023-05-07T11:31:49;21.76;57.40
75357;HTU21D;63946;51.986;5.930;2023-05-07T11:34:22;21.77;57.65
75357;HTU21D;63946;51.986;5.930;2023-05-07T11:36:55;21.89;57.29
75357;HTU21D;63946;51.986;5.930;2023-05-07T11:39:37;21.88;57.01
75357;HTU21D;63946;51.986;5.930;2023-05-07T11:42:28;21.84;56.83
75357;HTU21D;63946;51.986;5.930;2023-05-07T11:44:57;21.81;57.32
75357;HTU21D;63946;51.986;5.930;2023-05-07T11:47:29;21.82;57.07
75357;HTU21D;63946;51.986;5.930;2023-05-07T11:50:04;21.85;56.93
75357;HTU21D;63946;51.986;5.930;2023-05-07T11:52:33;21.76;56.42
75357;HTU21D;63946;51.986;5.930;2023-05-07T11:55:06;21.70;56.68
75357;HTU21D;63946;51.986;5.930;2023-05-07T11:57:35;21.77;56.75
75357;HTU21D;63946;51.986;5.930;2023-05-07T12:00:07;21.82;56.57
75357;HTU21D;63946;51.986;5.930;2023-05-07T12:02:39;21.82;56.24
75357;HTU21D;63946;51.986;5.930;2023-05-07T12:05:11;21.83;56.39
75357;HTU21D;63946;51.986;5.930;2023-05-07T12:07:40;21.87;56.50
75357;HTU21D;63946;51.986;5.930;2023-05-07T12:10:11;21.87;55.94
75357;HTU21D;63946;51.986;5.930;2023-05-07T12:12:41;21.79;55.84
75357;HTU21D;63946;51.986;5.930;2023-05-07T12:15:16;21.76;56.07
75357;HTU21D;63946;51.986;5.930;2023-05-07T12:17:45;21.68;55.99
75357;HTU21D;63946;51.986;5.930;2023-05-07T12:20:14;21.58;55.76
75357;HTU21D;63946;51.986;5.930;2023-05-07T12:22:43;21.49;56.08
75357;HTU21D;63946;51.986;5.930;2023-05-07T12:25:12;21.49;56.19
75357;HTU21D;63946;51.986;5.930;2023-05-07T12:27:51;21.58;56.42
75357;HTU21D;63946;51.986;5.930;2023-05-07T12:30:21;21.64;56.15
75357;HTU21D;63946;51.986;5.930;2023-05-07T12:32:53;21.64;55.87
75357;HTU21D;63946;51.986;5.930;2023-05-07T12:35:29;21.65;55.66
75357;HTU21D;63946;51.986;5.930;2023-05-07T12:38:00;21.72;56.06
75357;HTU21D;63946;51.986;5.930;2023-05-07T12:40:47;21.72;55.52
75357;HTU21D;63946;51.986;5.930;2023-05-07T12:43:21;21.73;55.43
75357;HTU21D;63946;51.986;5.930;2023-05-07T12:46:00;21.73;56.01
75357;HTU21D;63946;51.986;5.930;2023-05-07T12:48:32;21.78;56.20
75357;HTU21D;63946;51.986;5.930;2023-05-07T12:51:01;21.77;56.27
75357;HTU21D;63946;51.986;5.930;2023-05-07T12:53:30;21.62;56.29
75357;HTU21D;63946;51.986;5.930;2023-05-07T12:56:00;21.53;56.97
75357;HTU21D;63946;51.986;5.930;2023-05-07T12:58:31;21.53;56.96
75357;HTU21D;63946;51.986;5.930;2023-05-07T13:01:05;21.58;57.20
75357;HTU21D;63946;51.986;5.930;2023-05-07T13:03:36;21.58;57.19
75357;HTU21D;63946;51.986;5.930;2023-05-07T13:06:09;21.57;57.29
75357;HTU21D;63946;51.986;5.930;2023-05-07T13:08:40;21.58;57.48
75357;HTU21D;63946;51.986;5.930;2023-05-07T13:11:10;21.64;57.61
75357;HTU21D;63946;51.986;5.930;2023-05-07T13:13:41;21.67;57.29
75357;HTU21D;63946;51.986;5.930;2023-05-07T13:16:10;21.70;56.91
75357;HTU21D;63946;51.986;5.930;2023-05-07T13:18:40;21.66;56.69
75357;HTU21D;63946;51.986;5.930;2023-05-07T13:21:11;21.64;56.82
75357;HTU21D;63946;51.986;5.930;2023-05-07T13:23:45;21.66;57.03
75357;HTU21D;63946;51.986;5.930;2023-05-07T13:26:17;21.69;57.04
75357;HTU21D;63946;51.986;5.930;2023-05-07T13:28:46;21.69;57.02
75357;HTU21D;63946;51.986;5.930;2023-05-07T13:31:15;21.68;57.17
75357;HTU21D;63946;51.986;5.930;2023-05-07T13:33:43;21.66;56.72
75357;HTU21D;63946;51.986;5.930;2023-05-07T13:36:12;21.65;56.19
75357;HTU21D;63946;51.986;5.930;2023-05-07T13:38:41;21.53;56.03
75357;HTU21D;63946;51.986;5.930;2023-05-07T13:41:11;21.52;56.04
75357;HTU21D;63946;51.986;5.930;2023-05-07T13:43:40;21.51;56.35
75357;HTU21D;63946;51.986;5.930;2023-05-07T13:46:09;21.58;56.17
75357;HTU21D;63946;51.986;5.930;2023-05-07T13:48:40;21.57;55.96
75357;HTU21D;63946;51.986;5.930;2023-05-07T13:51:09;21.57;56.20
75357;HTU21D;63946;51.986;5.930;2023-05-07T13:53:38;21.62;56.14
75357;HTU21D;63946;51.986;5.930;2023-05-07T13:56:13;21.73;56.12
75357;HTU21D;63946;51.986;5.930;2023-05-07T13:58:42;21.80;55.55
75357;HTU21D;63946;51.986;5.930;2023-05-07T14:01:11;21.81;55.07
75357;HTU21D;63946;51.986;5.930;2023-05-07T14:03:43;21.76;54.91
75357;HTU21D;63946;51.986;5.930;2023-05-07T14:06:12;21.76;54.93
75357;HTU21D;63946;51.986;5.930;2023-05-07T14:08:44;21.78;55.07
75357;HTU21D;63946;51.986;5.930;2023-05-07T14:11:13;21.81;54.81
75357;HTU21D;63946;51.986;5.930;2023-05-07T14:13:42;21.91;54.68
75357;HTU21D;63946;51.986;5.930;2023-05-07T14:16:11;21.99;54.47
75357;HTU21D;63946;51.986;5.930;2023-05-07T14:18:39;22.02;54.20
75357;HTU21D;63946;51.986;5.930;2023-05-07T14:21:08;22.03;53.91
75357;HTU21D;63946;51.986;5.930;2023-05-07T14:23:37;22.02;53.95
75357;HTU21D;63946;51.986;5.930;2023-05-07T14:26:06;22.04;53.88
75357;HTU21D;63946;51.986;5.930;2023-05-07T14:28:35;22.07;53.67
75357;HTU21D;63946;51.986;5.930;2023-05-07T14:31:05;22.10;53.75
75357;HTU21D;63946;51.986;5.930;2023-05-07T14:33:35;22.06;54.10
75357;HTU21D;63946;51.986;5.930;2023-05-07T14:36:04;21.94;54.68
75357;HTU21D;63946;51.986;5.930;2023-05-07T14:38:33;21.80;55.24
75357;HTU21D;63946;51.986;5.930;2023-05-07T14:41:02;21.75;55.71
75357;HTU21D;63946;51.986;5.930;2023-05-07T14:43:30;21.75;55.92
75357;HTU21D;63946;51.986;5.930;2023-05-07T14:45:59;21.70;56.19
75357;HTU21D;63946;51.986;5.930;2023-05-07T14:48:28;21.62;56.27
75357;HTU21D;63946;51.986;5.930;2023-05-07T14:50:57;21.46;55.82
75357;HTU21D;63946;51.986;5.930;2023-05-07T14:53:26;21.16;54.84
75357;HTU21D;63946;51.986;5.930;2023-05-07T14:55:54;20.98;54.41
75357;HTU21D;63946;51.986;5.930;2023-05-07T14:58:23;20.92;54.85
75357;HTU21D;63946;51.986;5.930;2023-05-07T15:00:58;21.02;54.81
75357;HTU21D;63946;51.986;5.930;2023-05-07T15:03:27;21.11;54.63
75357;HTU21D;63946;51.986;5.930;2023-05-07T15:05:56;21.17;54.32
75357;HTU21D;63946;51.986;5.930;2023-05-07T15:08:28;21.14;54.49
75357;HTU21D;63946;51.986;5.930;2023-05-07T15:10:57;21.13;54.96
75357;HTU21D;63946;51.986;5.930;2023-05-07T15:13:26;21.17;55.16
75357;HTU21D;63946;51.986;5.930;2023-05-07T15:15:55;21.15;55.49
75357;HTU21D;63946;51.986;5.930;2023-05-07T15:18:23;21.09;54.93
75357;HTU21D;63946;51.986;5.930;2023-05-07T15:20:52;20.99;54.62
75357;HTU21D;63946;51.986;5.930;2023-05-07T15:23:21;20.86;55.06
75357;HTU21D;63946;51.986;5.930;2023-05-07T15:25:50;20.83;55.62
75357;HTU21D;63946;51.986;5.930;2023-05-07T15:28:20;20.88;55.73
75357;HTU21D;63946;51.986;5.930;2023-05-07T15:30:50;20.89;55.71
75357;HTU21D;63946;51.986;5.930;2023-05-07T15:33:23;20.84;55.71
75357;HTU21D;63946;51.986;5.930;2023-05-07T15:35:58;20.79;56.03
75357;HTU21D;63946;51.986;5.930;2023-05-07T15:38:29;20.80;56.36
75357;HTU21D;63946;51.986;5.930;2023-05-07T15:40:58;20.85;56.60
75357;HTU21D;63946;51.986;5.930;2023-05-07T15:43:27;20.79;56.60
75357;HTU21D;63946;51.986;5.930;2023-05-07T15:45:56;20.69;56.39
75357;HTU21D;63946;51.986;5.930;2023-05-07T15:48:28;20.60;56.21
75357;HTU21D;63946;51.986;5.930;2023-05-07T15:50:56;20.42;56.26
75357;HTU21D;63946;51.986;5.930;2023-05-07T15:53:25;20.19;56.68
75357;HTU21D;63946;51.986;5.930;2023-05-07T15:55:54;20.05;56.88
75357;HTU21D;63946;51.986;5.930;2023-05-07T15:58:26;19.91;57.23
75357;HTU21D;63946;51.986;5.930;2023-05-07T16:00:55;19.76;57.76
75357;HTU21D;63946;51.986;5.930;2023-05-07T16:03:26;19.63;58.32
75357;HTU21D;63946;51.986;5.930;2023-05-07T16:05:55;19.50;58.61
75357;HTU21D;63946;51.986;5.930;2023-05-07T16:08:26;19.35;59.06
75357;HTU21D;63946;51.986;5.930;2023-05-07T16:10:54;19.25;59.68
75357;HTU21D;63946;51.986;5.930;2023-05-07T16:13:25;19.17;60.50
75357;HTU21D;63946;51.986;5.930;2023-05-07T16:15:58;19.11;61.60
75357;HTU21D;63946;51.986;5.930;2023-05-07T16:18:29;19.01;62.42
75357;HTU21D;63946;51.986;5.930;2023-05-07T16:20:58;18.97;63.21
75357;HTU21D;63946;51.986;5.930;2023-05-07T16:23:27;18.94;63.76
75357;HTU21D;63946;51.986;5.930;2023-05-07T16:25:59;18.89;64.58
75357;HTU21D;63946;51.986;5.930;2023-05-07T16:28:29;18.82;64.93
75357;HTU21D;63946;51.986;5.930;2023-05-07T16:30:58;18.79;65.40
75357;HTU21D;63946;51.986;5.930;2023-05-07T16:33:27;18.72;65.97
75357;HTU21D;63946;51.986;5.930;2023-05-07T16:35:58;18.65;66.45
75357;HTU21D;63946;51.986;5.930;2023-05-07T16:38:28;18.62;66.74
75357;HTU21D;63946;51.986;5.930;2023-05-07T16:40:58;18.58;67.16
75357;HTU21D;63946;51.986;5.930;2023-05-07T16:43:27;18.55;67.43
75357;HTU21D;63946;51.986;5.930;2023-05-07T16:46:02;18.52;67.49
75357;HTU21D;63946;51.986;5.930;2023-05-07T16:48:34;18.43;67.33
75357;HTU21D;63946;51.986;5.930;2023-05-07T16:51:03;18.29;67.36
75357;HTU21D;63946;51.986;5.930;2023-05-07T16:53:33;18.20;67.54
75357;HTU21D;63946;51.986;5.930;2023-05-07T16:56:05;18.13;67.84
75357;HTU21D;63946;51.986;5.930;2023-05-07T16:58:34;18.07;67.97
75357;HTU21D;63946;51.986;5.930;2023-05-07T17:01:05;18.02;68.29
75357;HTU21D;63946;51.986;5.930;2023-05-07T17:03:37;17.90;68.58
75357;HTU21D;63946;51.986;5.930;2023-05-07T17:06:06;17.87;68.60
75357;HTU21D;63946;51.986;5.930;2023-05-07T17:08:38;17.87;68.73
75357;HTU21D;63946;51.986;5.930;2023-05-07T17:11:07;17.84;68.98
75357;HTU21D;63946;51.986;5.930;2023-05-07T17:13:36;17.84;69.01
75357;HTU21D;63946;51.986;5.930;2023-05-07T17:16:15;17.81;69.13
75357;HTU21D;63946;51.986;5.930;2023-05-07T17:18:44;17.76;69.08
75357;HTU21D;63946;51.986;5.930;2023-05-07T17:21:13;17.75;69.24
75357;HTU21D;63946;51.986;5.930;2023-05-07T17:23:47;17.76;69.33
75357;HTU21D;63946;51.986;5.930;2023-05-07T17:26:16;17.76;69.33
75357;HTU21D;63946;51.986;5.930;2023-05-07T17:28:46;17.77;69.28
75357;HTU21D;63946;51.986;5.930;2023-05-07T17:31:17;17.76;69.21
75357;HTU21D;63946;51.986;5.930;2023-05-07T17:33:50;17.75;69.23
75357;HTU21D;63946;51.986;5.930;2023-05-07T17:36:23;17.72;69.32
75357;HTU21D;63946;51.986;5.930;2023-05-07T17:38:52;17.67;69.55
75357;HTU21D;63946;51.986;5.930;2023-05-07T17:41:21;17.65;69.77
75357;HTU21D;63946;51.986;5.930;2023-05-07T17:43:50;17.65;69.94
75357;HTU21D;63946;51.986;5.930;2023-05-07T17:46:20;17.62;70.17
75357;HTU21D;63946;51.986;5.930;2023-05-07T17:48:49;17.65;70.20
75357;HTU21D;63946;51.986;5.930;2023-05-07T17:51:18;17.67;70.07
75357;HTU21D;63946;51.986;5.930;2023-05-07T17:53:46;17.67;69.99
75357;HTU21D;63946;51.986;5.930;2023-05-07T17:56:15;17.70;69.96
75357;HTU21D;63946;51.986;5.930;2023-05-07T17:58:47;17.66;70.10
75357;HTU21D;63946;51.986;5.930;2023-05-07T18:01:16;17.61;70.35
75357;HTU21D;63946;51.986;5.930;2023-05-07T18:03:48;17.58;70.39
75357;HTU21D;63946;51.986;5.930;2023-05-07T18:06:16;17.49;70.61
75357;HTU21D;63946;51.986;5.930;2023-05-07T18:08:47;17.46;70.76
75357;HTU21D;63946;51.986;5.930;2023-05-07T18:11:16;17.47;70.83
75357;HTU21D;63946;51.986;5.930;2023-05-07T18:13:46;17.50;70.98
75357;HTU21D;63946;51.986;5.930;2023-05-07T18:16:15;17.52;71.05
75357;HTU21D;63946;51.986;5.930;2023-05-07T18:18:44;17.55;71.01
75357;HTU21D;63946;51.986;5.930;2023-05-07T18:21:16;17.54;70.78
75357;HTU21D;63946;51.986;5.930;2023-05-07T18:23:47;17.50;70.81
75357;HTU21D;63946;51.986;5.930;2023-05-07T18:26:16;17.46;70.87
75357;HTU21D;63946;51.986;5.930;2023-05-07T18:28:46;17.43;71.00
75357;HTU21D;63946;51.986;5.930;2023-05-07T18:31:14;17.40;71.03
75357;HTU21D;63946;51.986;5.930;2023-05-07T18:33:43;17.41;71.14
75357;HTU21D;63946;51.986;5.930;2023-05-07T18:36:12;17.44;71.16
75357;HTU21D;63946;51.986;5.930;2023-05-07T18:38:41;17.46;71.26
75357;HTU21D;63946;51.986;5.930;2023-05-07T18:41:10;17.44;71.33
75357;HTU21D;63946;51.986;5.930;2023-05-07T18:43:41;17.41;71.46
75357;HTU21D;63946;51.986;5.930;2023-05-07T18:46:10;17.39;71.61
75357;HTU21D;63946;51.986;5.930;2023-05-07T18:48:39;17.36;71.74
75357;HTU21D;63946;51.986;5.930;2023-05-07T18:51:09;17.37;71.93
75357;HTU21D;63946;51.986;5.930;2023-05-07T18:53:42;17.37;72.03
75357;HTU21D;63946;51.986;5.930;2023-05-07T18:56:11;17.39;72.09
75357;HTU21D;63946;51.986;5.930;2023-05-07T18:58:40;17.39;72.08
75357;HTU21D;63946;51.986;5.930;2023-05-07T19:01:09;17.40;72.01
75357;HTU21D;63946;51.986;5.930;2023-05-07T19:03:41;17.37;71.90
75357;HTU21D;63946;51.986;5.930;2023-05-07T19:06:12;17.33;71.84
75357;HTU21D;63946;51.986;5.930;2023-05-07T19:08:43;17.26;71.97
75357;HTU21D;63946;51.986;5.930;2023-05-07T19:11:12;17.21;72.11
75357;HTU21D;63946;51.986;5.930;2023-05-07T19:13:47;17.21;72.08
75357;HTU21D;63946;51.986;5.930;2023-05-07T19:16:16;17.18;71.95
75357;HTU21D;63946;51.986;5.930;2023-05-07T19:18:45;17.14;72.05
75357;HTU21D;63946;51.986;5.930;2023-05-07T19:21:16;17.11;72.25
75357;HTU21D;63946;51.986;5.930;2023-05-07T19:23:45;17.15;72.32
75357;HTU21D;63946;51.986;5.930;2023-05-07T19:26:15;17.14;72.38
75357;HTU21D;63946;51.986;5.930;2023-05-07T19:28:44;17.17;72.40
75357;HTU21D;63946;51.986;5.930;2023-05-07T19:31:20;17.15;72.54
75357;HTU21D;63946;51.986;5.930;2023-05-07T19:33:51;17.15;72.51
75357;HTU21D;63946;51.986;5.930;2023-05-07T19:36:20;17.11;72.65
75357;HTU21D;63946;51.986;5.930;2023-05-07T19:38:49;17.09;72.77
75357;HTU21D;63946;51.986;5.930;2023-05-07T19:41:19;17.07;72.84
75357;HTU21D;63946;51.986;5.930;2023-05-07T19:43:49;17.07;72.85
75357;HTU21D;63946;51.986;5.930;2023-05-07T19:46:18;17.07;72.80
75357;HTU21D;63946;51.986;5.930;2023-05-07T19:48:46;17.06;72.78
75357;HTU21D;63946;51.986;5.930;2023-05-07T19:51:15;17.07;72.67
75357;HTU21D;63946;51.986;5.930;2023-05-07T19:53:47;17.06;72.61
75357;HTU21D;63946;51.986;5.930;2023-05-07T19:56:16;17.03;72.70
75357;HTU21D;63946;51.986;5.930;2023-05-07T19:58:44;16.95;73.03
75357;HTU21D;63946;51.986;5.930;2023-05-07T20:01:13;16.91;73.25
75357;HTU21D;63946;51.986;5.930;2023-05-07T20:03:42;16.89;73.31
75357;HTU21D;63946;51.986;5.930;2023-05-07T20:06:12;16.88;73.41
75357;HTU21D;63946;51.986;5.930;2023-05-07T20:08:40;16.88;73.34
75357;HTU21D;63946;51.986;5.930;2023-05-07T20:11:09;16.90;73.28
75357;HTU21D;63946;51.986;5.930;2023-05-07T20:13:38;16.92;73.19
75357;HTU21D;63946;51.986;5.930;2023-05-07T20:16:07;16.91;73.25
75357;HTU21D;63946;51.986;5.930;2023-05-07T20:18:36;16.88;73.40
75357;HTU21D;63946;51.986;5.930;2023-05-07T20:21:05;16.86;73.58
75357;HTU21D;63946;51.986;5.930;2023-05-07T20:23:34;16.87;73.60
75357;HTU21D;63946;51.986;5.930;2023-05-07T20:26:02;16.90;73.53
75357;HTU21D;63946;51.986;5.930;2023-05-07T20:28:31;16.91;73.54
75357;HTU21D;63946;51.986;5.930;2023-05-07T20:31:00;16.89;73.57
